createdAt,value
2022-08-31T00:00:15.363Z,3.20
2022-08-31T00:03:00.484Z,2.92
2022-08-31T00:05:28.261Z,3.40
2022-08-31T00:07:55.587Z,3.35
2022-08-31T00:10:31.809Z,3.00
2022-08-31T00:13:00.363Z,3.10
2022-08-31T00:15:29.997Z,3.38
2022-08-31T00:20:33.588Z,3.47
2022-08-31T00:23:05.680Z,2.63
2022-08-31T00:25:33.839Z,3.25
2022-08-31T00:28:00.478Z,2.90
2022-08-31T00:30:27.305Z,3.05
2022-08-31T00:32:53.916Z,2.95
2022-08-31T00:35:24.264Z,3.28
2022-08-31T00:37:50.803Z,3.53
2022-08-31T00:40:17.754Z,3.47
2022-08-31T00:42:44.362Z,3.47
2022-08-31T00:45:11.247Z,3.72
2022-08-31T00:47:38.104Z,3.53
2022-08-31T00:50:07.890Z,3.17
2022-08-31T00:52:40.035Z,2.95
2022-08-31T00:55:29.504Z,3.50
2022-08-31T00:57:58.080Z,3.10
2022-08-31T01:00:27.794Z,2.93
2022-08-31T01:02:55.635Z,2.90
2022-08-31T01:05:22.307Z,2.70
2022-08-31T01:07:50.024Z,3.35
2022-08-31T01:10:20.414Z,3.60
2022-08-31T01:12:50.791Z,3.50
2022-08-31T01:15:17.769Z,3.60
2022-08-31T01:17:48.205Z,3.60
2022-08-31T01:20:27.729Z,3.30
2022-08-31T01:22:59.394Z,4.22
2022-08-31T01:25:26.720Z,3.92
2022-08-31T01:28:04.713Z,3.63
2022-08-31T01:30:31.720Z,3.38
2022-08-31T01:32:58.584Z,3.90
2022-08-31T01:35:25.271Z,3.47
2022-08-31T01:37:52.922Z,3.70
2022-08-31T01:40:19.666Z,3.85
2022-08-31T01:42:46.533Z,3.75
2022-08-31T01:45:13.198Z,3.40
2022-08-31T01:47:40.819Z,3.35
2022-08-31T01:50:08.251Z,3.85
2022-08-31T01:52:37.732Z,3.70
2022-08-31T01:57:34.191Z,3.20
2022-08-31T02:00:05.894Z,2.97
2022-08-31T02:02:32.558Z,3.40
2022-08-31T02:04:59.202Z,3.65
2022-08-31T02:07:26.050Z,4.25
2022-08-31T02:09:54.190Z,3.30
2022-08-31T02:12:20.752Z,3.97
2022-08-31T02:14:47.287Z,4.07
2022-08-31T02:17:13.844Z,4.50
2022-08-31T02:19:40.614Z,4.43
2022-08-31T02:22:07.549Z,4.30
2022-08-31T02:24:34.246Z,3.92
2022-08-31T02:27:00.865Z,4.40
2022-08-31T02:29:27.587Z,3.75
2022-08-31T02:31:54.124Z,4.43
2022-08-31T02:34:20.793Z,4.13
2022-08-31T02:36:47.327Z,4.53
2022-08-31T02:39:14.894Z,3.50
2022-08-31T02:41:41.974Z,3.63
2022-08-31T02:44:08.626Z,3.60
2022-08-31T02:46:35.422Z,4.00
2022-08-31T02:49:02.535Z,3.92
2022-08-31T02:51:29.422Z,4.10
2022-08-31T02:53:56.161Z,4.07
2022-08-31T02:56:23.905Z,4.30
2022-08-31T02:58:55.258Z,4.68
2022-08-31T03:01:26.478Z,4.70
2022-08-31T03:03:53.227Z,4.70
2022-08-31T03:06:20.293Z,4.10
2022-08-31T03:08:47.582Z,4.50
2022-08-31T03:11:14.303Z,4.88
2022-08-31T03:13:41.725Z,4.07
2022-08-31T03:16:09.276Z,4.15
2022-08-31T03:18:35.906Z,3.83
2022-08-31T03:21:02.560Z,4.50
2022-08-31T03:23:29.507Z,3.88
2022-08-31T03:25:56.082Z,5.22
2022-08-31T03:28:22.688Z,5.03
2022-08-31T03:30:49.623Z,4.50
2022-08-31T03:33:16.563Z,5.20
2022-08-31T03:35:44.820Z,5.30
2022-08-31T03:38:13.004Z,4.38
2022-08-31T03:40:44.075Z,4.72
2022-08-31T03:43:11.827Z,4.90
2022-08-31T03:45:40.543Z,5.65
2022-08-31T03:48:12.240Z,4.97
2022-08-31T03:50:40.640Z,6.03
2022-08-31T03:53:08.492Z,5.63
2022-08-31T03:55:38.345Z,4.78
2022-08-31T03:58:06.003Z,6.00
2022-08-31T04:00:34.034Z,5.47
2022-08-31T04:03:01.633Z,5.55
2022-08-31T04:05:33.988Z,5.85
2022-08-31T04:08:00.574Z,5.80
2022-08-31T04:10:27.081Z,5.63
2022-08-31T04:12:53.695Z,4.65
2022-08-31T04:15:22.228Z,5.57
2022-08-31T04:17:49.058Z,5.55
2022-08-31T04:20:18.727Z,6.00
2022-08-31T04:22:53.125Z,6.53
2022-08-31T04:25:21.572Z,5.20
2022-08-31T04:27:50.391Z,5.95
2022-08-31T04:30:17.994Z,6.10
2022-08-31T04:32:44.530Z,5.63
2022-08-31T04:35:11.119Z,5.78
2022-08-31T04:37:37.645Z,5.85
2022-08-31T04:40:18.122Z,6.00
2022-08-31T04:42:47.333Z,6.00
2022-08-31T04:45:15.264Z,6.32
2022-08-31T04:47:42.950Z,6.47
2022-08-31T04:50:11.288Z,7.15
2022-08-31T04:52:37.985Z,6.82
2022-08-31T04:55:05.525Z,6.40
2022-08-31T04:57:35.556Z,6.60
2022-08-31T05:00:04.966Z,6.10
2022-08-31T05:05:00.501Z,6.55
2022-08-31T05:07:27.122Z,5.60
2022-08-31T05:09:54.090Z,5.78
2022-08-31T05:12:20.676Z,5.70
2022-08-31T05:14:47.901Z,5.70
2022-08-31T05:17:15.999Z,5.45
2022-08-31T05:19:43.901Z,5.97
2022-08-31T05:22:11.374Z,5.75
2022-08-31T05:24:38.987Z,5.90
2022-08-31T05:27:05.930Z,7.38
2022-08-31T05:29:32.546Z,5.63
2022-08-31T05:31:59.090Z,5.90
2022-08-31T05:34:26.885Z,6.10
2022-08-31T05:36:55.207Z,6.30
2022-08-31T05:39:22.110Z,6.43
2022-08-31T05:41:48.750Z,7.25
2022-08-31T05:44:16.926Z,6.30
2022-08-31T05:46:43.725Z,6.13
2022-08-31T05:49:11.652Z,6.68
2022-08-31T05:51:39.139Z,6.75
2022-08-31T05:54:07.568Z,6.90
2022-08-31T05:56:34.913Z,6.95
2022-08-31T05:59:01.849Z,6.72
2022-08-31T06:01:35.069Z,6.40
2022-08-31T06:04:02.469Z,6.38
2022-08-31T06:06:29.686Z,5.97
2022-08-31T06:08:57.986Z,7.57
2022-08-31T06:11:28.402Z,7.45
2022-08-31T06:13:58.143Z,8.32
2022-08-31T06:16:26.323Z,8.30
2022-08-31T06:18:55.680Z,8.43
2022-08-31T06:21:29.048Z,8.25
2022-08-31T06:23:58.041Z,8.98
2022-08-31T06:26:27.069Z,8.02
2022-08-31T06:28:57.113Z,8.52
2022-08-31T06:31:37.434Z,8.93
2022-08-31T06:34:07.089Z,8.65
2022-08-31T06:36:34.280Z,8.82
2022-08-31T06:39:02.383Z,8.10
2022-08-31T06:41:35.806Z,8.32
2022-08-31T06:44:07.898Z,8.73
2022-08-31T06:46:37.209Z,10.00
2022-08-31T06:49:04.999Z,10.15
2022-08-31T06:51:37.940Z,11.57
2022-08-31T06:54:27.516Z,13.63
2022-08-31T06:56:53.943Z,11.75
2022-08-31T06:59:20.544Z,11.98
2022-08-31T07:01:47.271Z,12.85
2022-08-31T07:04:14.242Z,12.88
2022-08-31T07:06:43.175Z,12.75
2022-08-31T07:09:12.941Z,13.32
2022-08-31T07:11:45.297Z,13.02
2022-08-31T07:14:14.790Z,15.32
2022-08-31T07:19:09.720Z,16.40
2022-08-31T07:21:47.347Z,16.95
2022-08-31T07:24:18.036Z,18.50
2022-08-31T07:26:49.956Z,17.58
2022-08-31T07:29:18.622Z,16.85
2022-08-31T07:31:48.848Z,17.47
2022-08-31T07:34:19.280Z,18.50
2022-08-31T07:37:05.936Z,18.85
2022-08-31T07:39:52.170Z,19.00
2022-08-31T07:42:28.769Z,19.40
2022-08-31T07:44:57.498Z,18.50
2022-08-31T07:47:28.441Z,16.77
2022-08-31T07:52:30.801Z,18.20
2022-08-31T07:55:07.894Z,16.73
2022-08-31T07:57:40.565Z,18.00
2022-08-31T08:00:10.485Z,17.60
2022-08-31T08:02:39.047Z,16.65
2022-08-31T08:05:11.945Z,15.53
2022-08-31T08:07:40.528Z,16.65
2022-08-31T08:10:14.139Z,16.97
2022-08-31T08:12:47.267Z,16.40
2022-08-31T08:15:15.442Z,17.15
2022-08-31T08:17:42.342Z,16.45
2022-08-31T08:20:13.476Z,16.33
2022-08-31T08:22:53.996Z,15.15
2022-08-31T08:25:26.059Z,14.50
2022-08-31T08:27:54.518Z,14.25
2022-08-31T08:30:22.660Z,15.23
2022-08-31T08:32:49.334Z,14.13
2022-08-31T08:35:16.690Z,13.55
2022-08-31T08:37:58.344Z,13.65
2022-08-31T08:40:42.644Z,12.70
2022-08-31T08:43:16.209Z,12.77
2022-08-31T08:45:45.851Z,12.20
2022-08-31T08:48:17.253Z,13.73
2022-08-31T08:50:44.280Z,12.55
2022-08-31T08:53:15.279Z,13.45
2022-08-31T08:55:42.362Z,12.10
2022-08-31T08:58:10.582Z,12.95
2022-08-31T09:00:46.446Z,11.43
2022-08-31T09:03:54.631Z,11.73
2022-08-31T09:06:32.191Z,11.05
2022-08-31T09:09:32.736Z,10.93
2022-08-31T09:12:24.042Z,10.55
2022-08-31T09:15:16.347Z,9.30
2022-08-31T09:18:05.231Z,9.07
2022-08-31T09:20:33.899Z,9.93
2022-08-31T09:23:02.248Z,11.87
2022-08-31T09:25:34.728Z,10.50
2022-08-31T09:28:15.101Z,10.73
2022-08-31T09:30:44.696Z,10.07
2022-08-31T09:33:23.988Z,10.32
2022-08-31T09:35:58.568Z,10.55
2022-08-31T09:38:39.527Z,9.48
2022-08-31T09:41:30.956Z,7.95
2022-08-31T09:44:22.274Z,8.13
2022-08-31T09:46:51.457Z,7.50
2022-08-31T09:49:26.924Z,7.82
2022-08-31T09:52:13.454Z,8.00
2022-08-31T09:54:58.694Z,7.43
2022-08-31T09:58:11.220Z,8.15
2022-08-31T10:00:44.855Z,6.72
2022-08-31T10:03:20.776Z,5.75
2022-08-31T10:05:51.760Z,5.80
2022-08-31T10:08:57.957Z,5.55
2022-08-31T10:11:29.407Z,6.20
2022-08-31T10:14:22.931Z,5.82
2022-08-31T10:17:00.438Z,5.47
2022-08-31T10:19:56.633Z,4.75
2022-08-31T10:22:31.469Z,4.75
2022-08-31T10:25:11.997Z,4.65
2022-08-31T10:27:44.935Z,4.45
2022-08-31T10:30:22.986Z,4.53
2022-08-31T10:33:07.801Z,4.45
2022-08-31T10:35:43.925Z,3.95
2022-08-31T10:38:24.176Z,4.85
2022-08-31T10:40:52.789Z,4.18
2022-08-31T10:43:29.186Z,4.90
2022-08-31T10:45:59.776Z,6.30
2022-08-31T10:48:27.465Z,8.65
2022-08-31T10:51:20.388Z,6.22
2022-08-31T10:53:52.228Z,8.02
2022-08-31T10:56:41.659Z,8.25
2022-08-31T10:59:24.683Z,7.90
2022-08-31T11:02:12.811Z,8.93
2022-08-31T11:05:06.610Z,7.82
2022-08-31T11:07:55.398Z,8.40
2022-08-31T11:10:37.372Z,6.68
2022-08-31T11:13:14.562Z,6.78
2022-08-31T11:15:59.770Z,6.97
2022-08-31T11:18:26.294Z,7.82
2022-08-31T11:21:11.066Z,7.75
2022-08-31T11:27:01.192Z,5.28
2022-08-31T11:29:43.901Z,4.70
2022-08-31T11:32:17.812Z,4.53
2022-08-31T11:34:53.466Z,5.03
2022-08-31T11:37:50.850Z,4.30
2022-08-31T11:40:41.705Z,4.82
2022-08-31T11:43:31.520Z,4.80
2022-08-31T11:46:24.035Z,4.82
2022-08-31T11:48:56.107Z,4.45
2022-08-31T11:51:40.668Z,4.30
2022-08-31T11:54:13.702Z,4.07
2022-08-31T11:56:44.266Z,3.83
2022-08-31T11:59:34.006Z,4.88
2022-08-31T12:02:19.543Z,4.10
2022-08-31T12:04:47.434Z,3.78
2022-08-31T12:07:24.775Z,3.70
2022-08-31T12:10:15.882Z,3.83
2022-08-31T12:12:51.458Z,2.95
2022-08-31T12:15:39.613Z,2.80
2022-08-31T12:18:08.822Z,2.42
2022-08-31T12:21:24.888Z,2.67
2022-08-31T12:24:06.451Z,2.53
2022-08-31T12:26:58.289Z,2.63
2022-08-31T12:29:26.961Z,2.17
2022-08-31T12:32:12.203Z,1.73
2022-08-31T12:34:49.580Z,1.90
2022-08-31T12:37:36.290Z,1.90
2022-08-31T12:40:06.143Z,2.10
2022-08-31T12:42:36.687Z,2.35
2022-08-31T12:45:04.925Z,2.10
2022-08-31T12:47:43.485Z,2.08
2022-08-31T12:50:17.851Z,2.03
2022-08-31T12:52:55.573Z,1.98
2022-08-31T12:55:31.130Z,1.73
2022-08-31T12:58:21.530Z,1.90
2022-08-31T13:00:48.432Z,1.85
2022-08-31T13:03:22.758Z,1.90
2022-08-31T13:06:08.370Z,1.60
2022-08-31T13:08:47.476Z,1.65
2022-08-31T13:11:34.949Z,1.77
2022-08-31T13:14:20.925Z,1.88
2022-08-31T13:16:50.725Z,1.88
2022-08-31T13:19:30.240Z,1.70
2022-08-31T13:22:09.543Z,1.80
2022-08-31T13:27:05.816Z,2.00
2022-08-31T13:29:41.097Z,2.00
2022-08-31T13:32:09.113Z,1.65
2022-08-31T13:34:39.377Z,2.00
2022-08-31T13:37:12.887Z,1.70
2022-08-31T13:39:46.083Z,1.80
2022-08-31T13:42:22.432Z,2.00
2022-08-31T13:44:56.338Z,1.52
2022-08-31T13:47:30.236Z,1.60
2022-08-31T13:50:13.199Z,1.38
2022-08-31T13:53:04.197Z,1.42
2022-08-31T13:55:43.304Z,1.52
2022-08-31T13:58:31.033Z,1.30
2022-08-31T14:01:19.430Z,1.88
2022-08-31T14:03:59.258Z,1.67
2022-08-31T14:06:29.897Z,1.35
2022-08-31T14:09:07.733Z,1.30
2022-08-31T14:11:35.657Z,1.70
2022-08-31T14:14:08.370Z,1.30
2022-08-31T14:16:38.970Z,1.55
2022-08-31T14:19:11.040Z,1.40
2022-08-31T14:21:43.503Z,1.58
2022-08-31T14:24:12.351Z,1.40
2022-08-31T14:26:44.103Z,1.60
2022-08-31T14:29:16.254Z,1.40
2022-08-31T14:31:49.102Z,1.60
2022-08-31T14:34:22.225Z,2.10
2022-08-31T14:37:10.890Z,1.77
2022-08-31T14:39:47.958Z,1.60
2022-08-31T14:42:28.972Z,1.50
2022-08-31T14:45:03.212Z,1.67
2022-08-31T14:47:36.146Z,1.23
2022-08-31T14:50:07.125Z,1.27
2022-08-31T14:52:39.033Z,1.30
2022-08-31T14:55:11.148Z,1.50
2022-08-31T14:57:45.704Z,1.20
2022-08-31T15:00:22.986Z,1.20
2022-08-31T15:02:53.554Z,1.10
2022-08-31T15:05:23.355Z,1.10
2022-08-31T15:07:52.966Z,1.10
2022-08-31T15:10:21.740Z,0.98
2022-08-31T15:12:48.850Z,1.02
2022-08-31T15:15:20.407Z,1.35
2022-08-31T15:17:51.709Z,1.20
2022-08-31T15:20:20.082Z,1.50
2022-08-31T15:22:48.265Z,1.10
2022-08-31T15:25:16.213Z,1.15
2022-08-31T15:27:46.589Z,1.10
2022-08-31T15:30:19.012Z,1.48
2022-08-31T15:32:48.076Z,1.10
2022-08-31T15:35:23.478Z,1.38
2022-08-31T15:37:58.841Z,1.35
2022-08-31T15:40:29.047Z,1.30
2022-08-31T15:42:56.273Z,1.25
2022-08-31T15:45:23.585Z,1.55
2022-08-31T15:48:08.647Z,1.30
2022-08-31T15:50:36.002Z,1.10
2022-08-31T15:53:09.553Z,1.25
2022-08-31T15:55:40.592Z,1.45
2022-08-31T15:58:09.313Z,1.20
2022-08-31T16:00:36.707Z,1.20
2022-08-31T16:03:03.764Z,1.40
2022-08-31T16:05:35.763Z,1.00
2022-08-31T16:08:03.188Z,1.33
2022-08-31T16:10:31.082Z,1.25
2022-08-31T16:12:58.183Z,1.27
2022-08-31T16:15:25.447Z,0.90
2022-08-31T16:17:57.656Z,1.10
2022-08-31T16:20:27.317Z,1.20
2022-08-31T16:22:54.047Z,0.85
2022-08-31T16:25:20.723Z,0.95
2022-08-31T16:27:47.360Z,1.30
2022-08-31T16:30:14.543Z,1.05
2022-08-31T16:32:41.120Z,1.00
2022-08-31T16:35:08.258Z,1.70
2022-08-31T16:37:34.904Z,1.52
2022-08-31T16:40:01.566Z,1.05
2022-08-31T16:42:28.383Z,1.70
2022-08-31T16:44:59.719Z,1.25
2022-08-31T16:47:29.088Z,1.77
2022-08-31T16:49:55.799Z,0.88
2022-08-31T16:52:26.777Z,1.10
2022-08-31T16:54:56.920Z,1.17
2022-08-31T16:57:27.272Z,1.10
2022-08-31T16:59:56.440Z,1.10
2022-08-31T17:02:24.267Z,0.85
2022-08-31T17:04:53.464Z,1.00
2022-08-31T17:07:23.440Z,1.20
2022-08-31T17:12:21.510Z,1.48
2022-08-31T17:14:52.550Z,1.40
2022-08-31T17:17:22.523Z,1.20
2022-08-31T17:19:49.755Z,0.90
2022-08-31T17:22:25.613Z,1.00
2022-08-31T17:24:57.711Z,1.20
2022-08-31T17:27:26.239Z,1.10
2022-08-31T17:29:56.198Z,1.20
2022-08-31T17:32:25.855Z,1.17
2022-08-31T17:34:54.512Z,1.17
2022-08-31T17:37:28.357Z,1.30
2022-08-31T17:39:55.891Z,1.40
2022-08-31T17:42:26.791Z,1.10
2022-08-31T17:44:55.272Z,1.05
2022-08-31T17:47:24.266Z,1.40
2022-08-31T17:49:51.609Z,1.30
2022-08-31T17:52:20.604Z,1.38
2022-08-31T17:54:48.526Z,0.90
2022-08-31T17:57:16.504Z,1.10
2022-08-31T17:59:46.561Z,1.40
2022-08-31T18:02:20.053Z,1.02
2022-08-31T18:04:46.670Z,1.42
2022-08-31T18:07:13.486Z,1.10
2022-08-31T18:09:44.193Z,1.92
2022-08-31T18:12:11.282Z,1.40
2022-08-31T18:14:38.880Z,1.10
2022-08-31T18:17:08.646Z,1.30
2022-08-31T18:19:35.329Z,1.40
2022-08-31T18:22:02.478Z,1.50
2022-08-31T18:24:31.376Z,1.33
2022-08-31T18:26:58.852Z,1.15
2022-08-31T18:29:26.708Z,1.00
2022-08-31T18:31:54.271Z,1.10
2022-08-31T18:34:23.047Z,1.30
2022-08-31T18:36:51.691Z,1.23
2022-08-31T18:39:40.748Z,1.40
2022-08-31T18:42:27.323Z,1.27
2022-08-31T18:45:12.662Z,1.60
2022-08-31T18:47:39.249Z,0.90
2022-08-31T18:50:06.203Z,1.23
2022-08-31T18:52:32.790Z,1.00
2022-08-31T18:54:59.869Z,1.42
2022-08-31T18:57:27.676Z,1.40
2022-08-31T18:59:55.201Z,1.30
2022-08-31T19:02:23.130Z,1.40
2022-08-31T19:04:51.118Z,1.40
2022-08-31T19:07:19.140Z,1.38
2022-08-31T19:09:46.087Z,1.58
2022-08-31T19:12:18.335Z,1.30
2022-08-31T19:14:51.068Z,1.20
2022-08-31T19:17:21.696Z,1.40
2022-08-31T19:19:49.352Z,1.40
2022-08-31T19:22:18.421Z,1.40
2022-08-31T19:24:45.122Z,1.20
2022-08-31T19:27:13.965Z,1.60
2022-08-31T19:29:41.730Z,1.30
2022-08-31T19:32:10.175Z,1.20
2022-08-31T19:34:40.416Z,1.30
2022-08-31T19:37:07.958Z,1.38
2022-08-31T19:39:37.424Z,1.60
2022-08-31T19:42:07.836Z,2.00
2022-08-31T19:47:25.633Z,1.42
2022-08-31T19:49:52.935Z,1.25
2022-08-31T19:52:20.160Z,1.30
2022-08-31T19:54:48.478Z,1.40
2022-08-31T19:57:16.765Z,1.20
2022-08-31T19:59:43.434Z,1.50
2022-08-31T20:02:10.207Z,1.42
2022-08-31T20:04:36.872Z,1.00
2022-08-31T20:07:06.415Z,1.10
2022-08-31T20:09:34.322Z,0.90
2022-08-31T20:12:02.022Z,1.05
2022-08-31T20:14:28.969Z,1.40
2022-08-31T20:16:55.516Z,1.30
2022-08-31T20:19:24.900Z,1.58
2022-08-31T20:21:54.195Z,1.90
2022-08-31T20:24:26.718Z,1.52
2022-08-31T20:26:55.527Z,1.45
2022-08-31T20:29:23.769Z,1.40
2022-08-31T20:34:20.123Z,1.52
2022-08-31T20:36:50.048Z,1.40
2022-08-31T20:39:18.445Z,1.17
2022-08-31T20:41:48.323Z,1.40
2022-08-31T20:44:21.417Z,1.20
2022-08-31T20:47:12.514Z,1.40
2022-08-31T20:49:42.234Z,1.27
2022-08-31T20:52:11.649Z,1.30
2022-08-31T20:57:09.097Z,1.00
2022-08-31T20:59:36.265Z,1.50
2022-08-31T21:02:06.112Z,1.30
2022-08-31T21:04:37.328Z,1.30
2022-08-31T21:07:05.890Z,1.30
2022-08-31T21:09:32.689Z,1.47
2022-08-31T21:11:59.988Z,1.23
2022-08-31T21:14:28.237Z,1.30
2022-08-31T21:16:55.987Z,1.40
2022-08-31T21:19:23.828Z,1.30
2022-08-31T21:21:52.321Z,1.10
2022-08-31T21:24:20.466Z,1.10
2022-08-31T21:26:47.871Z,1.27
2022-08-31T21:29:17.939Z,1.17
2022-08-31T21:31:58.270Z,1.48
2022-08-31T21:34:29.403Z,1.15
2022-08-31T21:36:55.956Z,1.27
2022-08-31T21:39:23.154Z,1.30
2022-08-31T21:41:50.510Z,1.30
2022-08-31T21:44:20.855Z,1.30
2022-08-31T21:46:50.742Z,1.30
2022-08-31T21:49:18.715Z,1.00
2022-08-31T21:51:52.203Z,1.30
2022-08-31T21:54:21.723Z,2.53
2022-08-31T21:56:53.445Z,2.00
2022-08-31T21:59:22.747Z,1.40
2022-08-31T22:01:55.496Z,1.60
2022-08-31T22:04:23.591Z,1.20
2022-08-31T22:06:50.122Z,1.73
2022-08-31T22:09:19.159Z,1.75
2022-08-31T22:11:50.698Z,1.88
2022-08-31T22:14:20.026Z,1.60
2022-08-31T22:16:48.492Z,1.58
2022-08-31T22:19:20.899Z,1.45
2022-08-31T22:21:51.129Z,1.58
2022-08-31T22:24:27.806Z,1.40
2022-08-31T22:26:56.643Z,1.20
2022-08-31T22:29:26.152Z,1.60
2022-08-31T22:34:21.466Z,1.35
2022-08-31T22:36:50.832Z,1.35
2022-08-31T22:39:19.848Z,1.55
2022-08-31T22:41:47.316Z,1.38
2022-08-31T22:44:18.062Z,1.73
2022-08-31T22:46:45.346Z,1.48
2022-08-31T22:54:23.761Z,1.90
2022-08-31T22:56:51.009Z,1.73
2022-08-31T22:59:27.103Z,2.30
2022-08-31T23:01:57.375Z,1.80
2022-08-31T23:04:26.375Z,1.77
2022-08-31T23:06:55.370Z,2.10
2022-08-31T23:09:27.130Z,1.75
2022-08-31T23:11:55.506Z,1.90
2022-08-31T23:14:22.737Z,2.08
2022-08-31T23:16:55.207Z,2.20
2022-08-31T23:19:26.278Z,2.00
2022-08-31T23:21:56.952Z,1.95
2022-08-31T23:24:35.412Z,2.20
2022-08-31T23:27:05.077Z,2.13
2022-08-31T23:29:42.513Z,1.90
2022-08-31T23:32:13.183Z,2.03
2022-08-31T23:34:41.966Z,2.10
2022-08-31T23:37:10.272Z,2.53
2022-08-31T23:39:39.548Z,2.05
2022-08-31T23:42:07.414Z,2.03
2022-08-31T23:44:36.186Z,2.00
2022-08-31T23:47:02.965Z,2.13
2022-08-31T23:49:29.696Z,2.13
2022-08-31T23:51:56.231Z,1.88
2022-08-31T23:54:23.313Z,2.00
2022-08-31T23:56:52.257Z,2.20
2022-08-31T23:59:19.863Z,2.03
